ADDS METAR Data

Data at: 1828 UTC 20 Jul 2018

METAR for:CYHZ (Halifax/Stanfield In, NS, CN)
Text:CYHZ 201800Z 18009KT 15SM FEW045 SCT300 26/13 A3021 RMK CU2CI2 SLP231 DENSITY ALT 1600FT
Temperature: 26.0°C ( 79°F)
Dewpoint: 13.0°C ( 55°F) [RH = 45%]
Pressure (altimeter):30.21 inches Hg (1023.1 mb) [Sea level pressure: 1023.1 mb]
Winds:from the S (180 degrees) at 10 MPH (9 knots; 4.6 m/s)
Visibility: 15 sm ( 24 km)
Ceiling:at least 12,000 feet AGL
Clouds: few clouds at 4500 feet AGL, scattered clouds at 30000 feet AGL